createdAt,value
2022-10-07T00:04:32.756Z,49.1
2022-10-07T00:09:50.977Z,48.5
2022-10-07T00:15:09.446Z,49.2
2022-10-07T00:20:27.662Z,48.6
2022-10-07T00:25:46.023Z,49.3
2022-10-07T00:31:04.502Z,49.3
2022-10-07T00:36:22.760Z,48.6
2022-10-07T00:41:41.267Z,48.7
2022-10-07T00:46:59.163Z,49.3
2022-10-07T00:52:17.933Z,48.6
2022-10-07T00:57:36.166Z,49.4
2022-10-07T01:02:54.672Z,49.3
2022-10-07T01:08:13.254Z,48.6
2022-10-07T01:13:31.472Z,48.9
2022-10-07T01:18:49.651Z,49.4
2022-10-07T01:24:07.860Z,49.6
2022-10-07T01:29:26.392Z,48.8
2022-10-07T01:34:44.568Z,49.6
2022-10-07T01:40:03.051Z,49.7
2022-10-07T01:45:21.611Z,49.2
2022-10-07T01:50:40.347Z,49.1
2022-10-07T01:55:59.122Z,48.9
2022-10-07T02:01:18.019Z,49.8
2022-10-07T02:06:36.298Z,50
2022-10-07T02:11:54.504Z,49.9
2022-10-07T02:17:13.202Z,50
2022-10-07T02:22:31.399Z,49.2
2022-10-07T02:27:34.264Z,48.9
2022-10-07T02:32:53.066Z,49.3
2022-10-07T02:38:11.523Z,48.9
2022-10-07T02:43:29.744Z,49.6
2022-10-07T02:48:48.260Z,49.1
2022-10-07T02:54:06.446Z,50
2022-10-07T02:59:24.930Z,49.8
2022-10-07T03:04:43.297Z,50
2022-10-07T03:10:01.491Z,49.7
2022-10-07T03:15:20.266Z,50
2022-10-07T03:20:38.503Z,49.7
2022-10-07T03:25:56.683Z,50.1
2022-10-07T03:31:14.966Z,49.2
2022-10-07T03:36:33.266Z,50
2022-10-07T03:41:51.727Z,49.8
2022-10-07T03:47:12.022Z,49.2
2022-10-07T03:52:30.105Z,49.2
2022-10-07T03:57:48.853Z,49.8
2022-10-07T04:03:07.683Z,50.1
2022-10-07T04:08:26.276Z,49.5
2022-10-07T04:13:45.029Z,50.1
2022-10-07T04:19:03.521Z,50.1
2022-10-07T04:24:21.484Z,50.2
2022-10-07T04:29:40.034Z,49.4
2022-10-07T04:34:58.240Z,49.4
2022-10-07T04:40:16.748Z,49.8
2022-10-07T04:45:34.943Z,49.5
2022-10-07T04:50:53.153Z,48.9
2022-10-07T04:56:11.962Z,42.2
2022-10-07T05:01:30.121Z,41.9
2022-10-07T05:06:48.662Z,43.2
2022-10-07T05:12:07.656Z,45.1
2022-10-07T05:17:25.582Z,46.2
2022-10-07T05:22:44.357Z,45.9
2022-10-07T05:28:02.734Z,46.2
2022-10-07T05:33:20.914Z,46.8
2022-10-07T05:38:39.127Z,46.4
2022-10-07T05:43:57.373Z,46.4
2022-10-07T05:49:15.569Z,47.1
2022-10-07T05:54:34.332Z,46.7
2022-10-07T05:59:53.139Z,47.2
2022-10-07T06:05:11.317Z,47.8
2022-10-07T06:10:29.885Z,47
2022-10-07T06:15:48.126Z,47.7
2022-10-07T06:21:06.894Z,47.3
2022-10-07T06:26:25.077Z,46.9
2022-10-07T06:31:43.036Z,47.2
2022-10-07T06:37:01.235Z,47.9
2022-10-07T06:42:19.435Z,47.3
2022-10-07T06:47:37.415Z,47.6
2022-10-07T06:52:55.602Z,48
2022-10-07T06:58:14.096Z,48
2022-10-07T07:03:32.331Z,47.9
2022-10-07T07:08:50.508Z,47.2
2022-10-07T07:14:08.717Z,47.2
2022-10-07T07:19:26.959Z,47.9
2022-10-07T07:24:45.701Z,47.3
2022-10-07T07:29:48.023Z,47.3
2022-10-07T07:35:05.998Z,47.3
2022-10-07T07:40:23.906Z,47.9
2022-10-07T07:45:42.235Z,48
2022-10-07T07:51:00.744Z,47.6
2022-10-07T07:56:03.583Z,47.2
2022-10-07T08:01:22.562Z,47.9
2022-10-07T08:06:40.958Z,47.3
2022-10-07T08:11:59.147Z,47.1
2022-10-07T08:17:17.625Z,47.1
2022-10-07T08:22:36.134Z,47
2022-10-07T08:27:54.322Z,47
2022-10-07T08:33:12.811Z,46.7
2022-10-07T08:38:31.623Z,47
2022-10-07T08:43:49.797Z,47.3
2022-10-07T08:49:08.277Z,47
2022-10-07T08:54:11.228Z,47.5
2022-10-07T08:59:29.390Z,47.7
2022-10-07T09:04:47.874Z,47
2022-10-07T09:10:06.111Z,47.8
2022-10-07T09:15:24.282Z,47.8
2022-10-07T09:20:42.494Z,47.6
2022-10-07T09:26:01.020Z,47.5
2022-10-07T09:31:19.578Z,47.6
2022-10-07T09:36:38.116Z,46.8
2022-10-07T09:41:56.923Z,47.3
2022-10-07T09:47:15.655Z,46.7
2022-10-07T09:52:34.423Z,46.7
2022-10-07T09:57:53.221Z,46.8
2022-10-07T10:03:11.727Z,47.1
2022-10-07T10:08:29.921Z,47.4
2022-10-07T10:13:48.548Z,46.9
2022-10-07T10:19:07.008Z,47.4
2022-10-07T10:24:25.224Z,47.5
2022-10-07T10:29:43.469Z,47.5
2022-10-07T10:35:02.201Z,46.8
2022-10-07T10:40:20.589Z,46.7
2022-10-07T10:45:38.537Z,47.4
2022-10-07T10:50:57.001Z,47.2
2022-10-07T10:56:15.495Z,47
2022-10-07T11:01:33.993Z,47
2022-10-07T11:06:51.984Z,47.5
2022-10-07T11:12:10.196Z,46.8
2022-10-07T11:17:28.170Z,47
2022-10-07T11:22:47.836Z,46.6
2022-10-07T11:28:06.285Z,47.3
2022-10-07T11:33:24.784Z,47.1
2022-10-07T11:38:43.243Z,47.4
2022-10-07T11:44:02.005Z,47
2022-10-07T11:49:20.829Z,46.6
2022-10-07T11:54:39.285Z,47.3
2022-10-07T11:59:57.478Z,47.2
2022-10-07T12:05:16.014Z,46.7
2022-10-07T12:10:34.475Z,47.1
2022-10-07T12:15:53.104Z,46.7
2022-10-07T12:21:11.603Z,47.3
2022-10-07T12:26:30.062Z,46.8
2022-10-07T12:31:48.861Z,47
2022-10-07T12:37:07.140Z,47.6
2022-10-07T12:42:25.870Z,47.5
2022-10-07T12:47:44.356Z,47.1
2022-10-07T12:53:02.640Z,47.6
2022-10-07T12:58:21.095Z,47.8
2022-10-07T13:03:39.852Z,47.7
2022-10-07T13:08:58.073Z,47.6
2022-10-07T13:14:17.865Z,47.8
2022-10-07T13:19:36.355Z,47.6
2022-10-07T13:24:54.986Z,47.8
2022-10-07T13:30:13.391Z,47.7
2022-10-07T13:35:40.020Z,46.7
2022-10-07T13:40:58.560Z,47.2
2022-10-07T13:46:16.592Z,47.5
2022-10-07T13:51:34.602Z,47.6
2022-10-07T13:56:52.932Z,47.8
2022-10-07T14:02:11.996Z,47.4
2022-10-07T14:07:30.454Z,47.7
2022-10-07T14:12:49.924Z,47.9
2022-10-07T14:18:08.651Z,47.8
2022-10-07T14:23:27.123Z,46.7
2022-10-07T14:28:45.715Z,43.1
2022-10-07T14:34:03.931Z,44.7
2022-10-07T14:39:22.417Z,46.1
2022-10-07T14:44:40.920Z,45.6
2022-10-07T14:49:59.612Z,45.6
2022-10-07T14:55:17.803Z,45.5
2022-10-07T15:00:40.578Z,45.8
2022-10-07T15:05:58.772Z,46
2022-10-07T15:11:17.256Z,47.1
2022-10-07T15:16:35.767Z,46.5
2022-10-07T15:21:54.292Z,46.7
2022-10-07T15:27:13.068Z,46.7
2022-10-07T15:32:31.568Z,46.9
2022-10-07T15:37:49.459Z,47
2022-10-07T15:43:07.949Z,47.1
2022-10-07T15:48:26.736Z,46.2
2022-10-07T15:53:45.168Z,45.9
2022-10-07T15:59:03.635Z,46.6
2022-10-07T16:04:07.054Z,47.2
2022-10-07T16:09:24.979Z,46.7
2022-10-07T16:14:43.183Z,45.7
2022-10-07T16:20:01.909Z,46.3
2022-10-07T16:25:20.070Z,46.4
2022-10-07T16:30:38.009Z,46
2022-10-07T16:35:56.047Z,45.5
2022-10-07T16:41:14.490Z,46.1
2022-10-07T16:46:33.225Z,45.5
2022-10-07T16:51:51.480Z,45.7
2022-10-07T16:57:10.206Z,46.4
2022-10-07T17:02:28.692Z,46.3
2022-10-07T17:07:48.717Z,46.4
2022-10-07T17:13:06.889Z,45.4
2022-10-07T17:18:25.101Z,45.2
2022-10-07T17:23:43.621Z,46
2022-10-07T17:29:02.380Z,45.2
2022-10-07T17:34:20.892Z,45.9
2022-10-07T17:39:39.157Z,45.9
2022-10-07T17:44:57.328Z,45.4
2022-10-07T17:50:15.523Z,45.1
2022-10-07T17:55:34.028Z,45.9
2022-10-07T18:00:52.382Z,45.3
2022-10-07T18:06:10.822Z,43.2
2022-10-07T18:11:29.700Z,44.7
2022-10-07T18:16:47.828Z,45.5
2022-10-07T18:22:05.757Z,46.5
2022-10-07T18:27:24.325Z,46
2022-10-07T18:32:42.481Z,46.9
2022-10-07T18:38:01.259Z,46
2022-10-07T18:43:19.756Z,46.5
2022-10-07T18:48:38.640Z,46.2
2022-10-07T18:53:56.855Z,46.4
2022-10-07T18:58:59.741Z,46
2022-10-07T19:04:17.929Z,45.7
2022-10-07T19:09:36.418Z,46.4
2022-10-07T19:14:54.938Z,46.5
2022-10-07T19:20:13.136Z,46.4
2022-10-07T19:25:31.594Z,46.5
2022-10-07T19:30:50.258Z,46.8
2022-10-07T19:36:08.987Z,46.7
2022-10-07T19:41:27.181Z,46.1
2022-10-07T19:46:45.975Z,46.5
2022-10-07T19:52:04.723Z,46.1
2022-10-07T19:57:23.497Z,46
2022-10-07T20:02:42.122Z,46.9
2022-10-07T20:08:02.731Z,46.7
2022-10-07T20:13:22.680Z,47.4
2022-10-07T20:18:41.471Z,46.7
2022-10-07T20:23:59.935Z,46.5
2022-10-07T20:29:26.007Z,47.2
2022-10-07T20:34:44.380Z,46.7
2022-10-07T20:40:02.923Z,46.6
2022-10-07T20:45:21.425Z,47.2
2022-10-07T20:50:40.221Z,46.8
2022-10-07T20:55:58.681Z,47
2022-10-07T21:01:17.611Z,46.7
2022-10-07T21:06:35.924Z,47.4
2022-10-07T21:11:54.660Z,46.7
2022-10-07T21:17:13.436Z,47.6
2022-10-07T21:22:31.405Z,46.8
2022-10-07T21:27:49.851Z,47
2022-10-07T21:33:08.059Z,47.7
2022-10-07T21:38:26.567Z,47.1
2022-10-07T21:43:44.752Z,47.6
2022-10-07T21:49:02.675Z,47.1
2022-10-07T21:54:21.508Z,47.4
2022-10-07T21:59:39.558Z,47.1
2022-10-07T22:04:58.330Z,47.9
2022-10-07T22:10:16.563Z,47.3
2022-10-07T22:15:34.907Z,47.8
2022-10-07T22:20:53.465Z,47.3
2022-10-07T22:26:11.431Z,48.1
2022-10-07T22:31:29.831Z,47.3
2022-10-07T22:36:48.312Z,47
2022-10-07T22:42:06.974Z,48
2022-10-07T22:47:24.866Z,47.3
2022-10-07T22:52:43.364Z,47.5
2022-10-07T22:58:01.793Z,47.4
2022-10-07T23:03:20.850Z,47.5
2022-10-07T23:08:39.370Z,48.1
2022-10-07T23:13:57.700Z,47.9
2022-10-07T23:19:16.173Z,48.3
2022-10-07T23:24:34.647Z,48.2
2022-10-07T23:29:52.893Z,47.6
2022-10-07T23:35:11.081Z,48.1
2022-10-07T23:40:29.849Z,47.7
2022-10-07T23:45:48.345Z,48.4
2022-10-07T23:51:06.536Z,48.4
2022-10-07T23:56:25.036Z,47.6
